createdAt,value
2022-12-23T00:00:10.434Z,100144.88
2022-12-23T00:02:42.672Z,100145.66
2022-12-23T00:05:14.741Z,100151.00
2022-12-23T00:07:46.789Z,100134.28
2022-12-23T00:10:18.939Z,100149.38
2022-12-23T00:13:09.442Z,100159.00
2022-12-23T00:15:41.415Z,100164.16
2022-12-23T00:18:13.387Z,100158.00
2022-12-23T00:20:45.361Z,100164.22
2022-12-23T00:23:17.328Z,100162.44
2022-12-23T00:25:49.233Z,100163.31
2022-12-23T00:28:24.568Z,100161.41
2022-12-23T00:31:03.547Z,100176.41
2022-12-23T00:33:40.120Z,100178.19
2022-12-23T00:36:30.691Z,100173.66
2022-12-23T00:39:21.216Z,100171.16
2022-12-23T00:42:11.683Z,100179.81
2022-12-23T00:44:44.152Z,100180.88
2022-12-23T00:47:36.108Z,100181.81
2022-12-23T00:50:09.383Z,100187.09
2022-12-23T00:52:41.328Z,100191.47
2022-12-23T00:55:13.310Z,100196.66
2022-12-23T00:57:45.480Z,100201.94
2022-12-23T01:00:18.136Z,100201.91
2022-12-23T01:03:08.571Z,100208.03
2022-12-23T01:05:40.617Z,100209.75
2022-12-23T01:08:12.716Z,100212.44
2022-12-23T01:10:44.928Z,100213.28
2022-12-23T01:13:16.905Z,100219.44
2022-12-23T01:15:48.906Z,100219.38
2022-12-23T01:18:20.849Z,100203.41
2022-12-23T01:20:52.875Z,100219.38
2022-12-23T01:23:24.795Z,100208.88
2022-12-23T01:26:01.528Z,100220.31
2022-12-23T01:28:35.576Z,100212.34
2022-12-23T01:31:10.645Z,100211.53
2022-12-23T01:33:42.744Z,100219.44
2022-12-23T01:36:15.202Z,100218.53
2022-12-23T01:38:47.334Z,100211.56
2022-12-23T01:41:41.263Z,100221.22
2022-12-23T01:44:51.953Z,100222.00
2022-12-23T01:48:04.792Z,100224.63
2022-12-23T01:50:51.562Z,100224.63
2022-12-23T01:53:39.640Z,100237.78
2022-12-23T01:56:31.045Z,100238.63
2022-12-23T01:59:11.333Z,100241.25
2022-12-23T02:02:02.231Z,100241.13
2022-12-23T02:04:34.307Z,100241.03
2022-12-23T02:07:25.100Z,100261.28
2022-12-23T02:09:57.076Z,100251.56
2022-12-23T02:12:49.942Z,100258.56
2022-12-23T02:16:05.668Z,100269.09
2022-12-23T02:18:58.478Z,100254.97
2022-12-23T02:22:06.246Z,100262.16
2022-12-23T02:25:10.891Z,100264.78
2022-12-23T02:27:49.290Z,100265.63
2022-12-23T02:30:28.321Z,100263.88
2022-12-23T02:34:00.800Z,100270.81
2022-12-23T02:36:58.398Z,100284.84
2022-12-23T02:39:45.412Z,100295.38
2022-12-23T02:42:23.777Z,100304.16
2022-12-23T02:45:31.975Z,100300.44
2022-12-23T02:48:17.081Z,100318.06
2022-12-23T02:50:52.799Z,100320.75
2022-12-23T02:53:56.195Z,100319.81
2022-12-23T02:56:33.003Z,100318.06
2022-12-23T02:59:18.605Z,100326.00
2022-12-23T03:01:53.384Z,100325.19
2022-12-23T03:04:25.532Z,100316.41
2022-12-23T03:07:02.986Z,100317.28
2022-12-23T03:10:17.985Z,100314.56
2022-12-23T03:13:07.863Z,100325.06
2022-12-23T03:15:40.004Z,100325.97
2022-12-23T03:18:17.034Z,100327.81
2022-12-23T03:21:06.566Z,100331.28
2022-12-23T03:23:57.964Z,100300.22
2022-12-23T03:26:57.136Z,100325.94
2022-12-23T03:29:57.591Z,100316.28
2022-12-23T03:32:37.968Z,100323.38
2022-12-23T03:35:14.202Z,100298.78
2022-12-23T03:37:51.857Z,100315.63
2022-12-23T03:40:30.316Z,100318.06
2022-12-23T03:43:09.681Z,100318.19
2022-12-23T03:45:56.383Z,100319.97
2022-12-23T03:48:40.105Z,100312.03
2022-12-23T03:51:19.618Z,100313.84
2022-12-23T03:54:19.239Z,100318.19
2022-12-23T03:57:01.509Z,100322.63
2022-12-23T03:59:45.365Z,100326.09
2022-12-23T04:02:45.743Z,100325.19
2022-12-23T04:05:39.541Z,100318.16
2022-12-23T04:08:29.793Z,100322.38
2022-12-23T04:11:03.522Z,100337.50
2022-12-23T04:13:35.560Z,100334.03
2022-12-23T04:16:08.211Z,100332.38
2022-12-23T04:18:40.268Z,100343.84
2022-12-23T04:21:12.213Z,100334.19
2022-12-23T04:23:44.195Z,100349.06
2022-12-23T04:26:16.109Z,100347.25
2022-12-23T04:28:48.602Z,100356.78
2022-12-23T04:31:20.593Z,100361.22
2022-12-23T04:33:52.561Z,100360.41
2022-12-23T04:36:24.493Z,100369.25
2022-12-23T04:38:56.619Z,100359.28
2022-12-23T04:41:28.559Z,100369.00
2022-12-23T04:44:00.508Z,100369.03
2022-12-23T04:46:32.516Z,100357.59
2022-12-23T04:49:04.590Z,100344.28
2022-12-23T04:51:36.553Z,100361.16
2022-12-23T04:54:08.544Z,100353.22
2022-12-23T04:56:40.506Z,100350.59
2022-12-23T04:59:12.655Z,100345.25
2022-12-23T05:01:44.908Z,100339.22
2022-12-23T05:04:17.321Z,100338.38
2022-12-23T05:06:49.490Z,100336.53
2022-12-23T05:09:21.502Z,100342.69
2022-12-23T05:11:53.448Z,100333.91
2022-12-23T05:14:25.367Z,100333.06
2022-12-23T05:17:02.119Z,100336.66
2022-12-23T05:19:37.272Z,100346.28
2022-12-23T05:22:09.231Z,100351.34
2022-12-23T05:24:41.193Z,100373.41
2022-12-23T05:27:13.181Z,100377.81
2022-12-23T05:29:45.127Z,100386.63
2022-12-23T05:32:17.053Z,100376.88
2022-12-23T05:34:49.040Z,100391.06
2022-12-23T05:37:20.985Z,100381.28
2022-12-23T05:39:52.954Z,100393.75
2022-12-23T05:42:24.908Z,100381.38
2022-12-23T05:44:56.871Z,100374.16
2022-12-23T05:47:28.779Z,100400.78
2022-12-23T05:50:00.880Z,100396.38
2022-12-23T05:52:32.844Z,100392.03
2022-12-23T05:55:06.042Z,100382.34
2022-12-23T05:57:37.975Z,100383.28
2022-12-23T06:00:10.835Z,100372.72
2022-12-23T06:02:46.130Z,100371.06
2022-12-23T06:05:22.554Z,100371.06
2022-12-23T06:07:54.583Z,100353.34
2022-12-23T06:10:26.593Z,100364.94
2022-12-23T06:12:58.868Z,100363.03
2022-12-23T06:15:30.953Z,100353.34
2022-12-23T06:18:02.912Z,100351.59
2022-12-23T06:20:35.029Z,100350.78
2022-12-23T06:23:06.919Z,100342.88
2022-12-23T06:25:38.850Z,100342.94
2022-12-23T06:28:10.810Z,100344.75
2022-12-23T06:30:42.744Z,100346.56
2022-12-23T06:33:14.636Z,100352.75
2022-12-23T06:35:46.571Z,100353.66
2022-12-23T06:38:18.512Z,100359.00
2022-12-23T06:40:50.479Z,100361.56
2022-12-23T06:43:22.397Z,100362.41
2022-12-23T06:45:54.346Z,100357.97
2022-12-23T06:48:26.367Z,100368.56
2022-12-23T06:50:58.317Z,100385.22
2022-12-23T06:53:30.403Z,100393.88
2022-12-23T06:56:03.720Z,100382.34
2022-12-23T06:58:35.700Z,100398.38
2022-12-23T07:01:09.198Z,100409.72
2022-12-23T07:03:42.048Z,100421.16
2022-12-23T07:06:14.156Z,100421.16
2022-12-23T07:08:46.092Z,100428.22
2022-12-23T07:11:18.666Z,100436.09
2022-12-23T07:13:50.929Z,100441.44
2022-12-23T07:16:22.955Z,100427.44
2022-12-23T07:18:54.937Z,100417.75
2022-12-23T07:21:29.824Z,100420.41
2022-12-23T07:24:02.399Z,100408.19
2022-12-23T07:26:34.340Z,100409.88
2022-12-23T07:29:06.415Z,100406.41
2022-12-23T07:31:41.152Z,100397.53
2022-12-23T07:34:13.395Z,100409.97
2022-12-23T07:36:45.465Z,100412.59
2022-12-23T07:39:17.411Z,100417.25
2022-12-23T07:41:55.517Z,100400.16
2022-12-23T07:44:35.730Z,100403.44
2022-12-23T07:47:07.686Z,100400.69
2022-12-23T07:49:39.606Z,100400.81
2022-12-23T07:52:11.553Z,100404.41
2022-12-23T07:54:43.739Z,100407.94
2022-12-23T07:57:15.704Z,100414.09
2022-12-23T07:59:47.654Z,100402.72
2022-12-23T08:02:22.202Z,100394.97
2022-12-23T08:04:54.285Z,100403.91
2022-12-23T08:07:26.325Z,100399.34
2022-12-23T08:09:58.293Z,100390.63
2022-12-23T08:12:30.432Z,100369.59
2022-12-23T08:15:02.416Z,100374.91
2022-12-23T08:17:34.363Z,100385.50
2022-12-23T08:20:07.269Z,100383.84
2022-12-23T08:22:39.254Z,100380.41
2022-12-23T08:25:11.187Z,100385.59
2022-12-23T08:27:43.218Z,100389.06
2022-12-23T08:30:15.351Z,100394.34
2022-12-23T08:32:47.299Z,100386.31
2022-12-23T08:35:19.253Z,100384.63
2022-12-23T08:37:51.807Z,100392.56
2022-12-23T08:40:23.739Z,100385.44
2022-12-23T08:42:55.860Z,100380.22
2022-12-23T08:45:27.993Z,100375.88
2022-12-23T08:47:59.931Z,100370.59
2022-12-23T08:50:37.998Z,100362.72
2022-12-23T08:53:11.405Z,100357.47
2022-12-23T08:55:48.157Z,100355.72
2022-12-23T08:58:20.219Z,100358.16
2022-12-23T09:00:52.236Z,100363.44
2022-12-23T09:03:24.344Z,100352.84
2022-12-23T09:05:56.666Z,100345.00
2022-12-23T09:08:28.598Z,100353.72
2022-12-23T09:11:01.395Z,100335.31
2022-12-23T09:13:35.876Z,100331.81
2022-12-23T09:16:08.555Z,100317.75
2022-12-23T09:18:42.015Z,100324.03
2022-12-23T09:21:17.960Z,100322.38
2022-12-23T09:23:51.251Z,100315.44
2022-12-23T09:26:27.414Z,100311.97
2022-12-23T09:28:59.752Z,100303.97
2022-12-23T09:31:36.876Z,100310.16
2022-12-23T09:34:11.969Z,100309.34
2022-12-23T09:36:44.017Z,100307.63
2022-12-23T09:39:16.666Z,100292.59
2022-12-23T09:42:12.814Z,100296.06
2022-12-23T09:45:21.294Z,100287.31
2022-12-23T09:47:56.191Z,100289.13
2022-12-23T09:50:34.271Z,100282.06
2022-12-23T09:53:38.974Z,100279.44
2022-12-23T09:56:27.605Z,100275.78
2022-12-23T09:59:35.239Z,100281.00
2022-12-23T10:02:39.142Z,100275.34
2022-12-23T10:05:32.771Z,100293.97
2022-12-23T10:08:22.649Z,100299.28
2022-12-23T10:11:01.907Z,100287.00
2022-12-23T10:13:50.195Z,100272.84
2022-12-23T10:16:41.885Z,100267.59
2022-12-23T10:19:44.272Z,100259.66
2022-12-23T10:22:32.929Z,100249.25
2022-12-23T10:25:41.289Z,100247.47
2022-12-23T10:28:13.182Z,100236.16
2022-12-23T10:31:39.276Z,100230.97
2022-12-23T10:34:17.513Z,100225.53
2022-12-23T10:37:16.961Z,100212.50
2022-12-23T10:40:27.705Z,100199.22
2022-12-23T10:43:25.636Z,100217.75
2022-12-23T10:46:37.679Z,100206.47
2022-12-23T10:49:48.950Z,100207.31
2022-12-23T10:52:24.034Z,100197.72
2022-12-23T10:54:55.951Z,100162.44
2022-12-23T10:57:30.443Z,100166.13
2022-12-23T11:00:10.642Z,100175.03
2022-12-23T11:03:08.217Z,100170.66
2022-12-23T11:05:40.603Z,100156.66
2022-12-23T11:08:13.307Z,100146.97
2022-12-23T11:10:46.506Z,100121.38
2022-12-23T11:13:46.556Z,100137.19
2022-12-23T11:16:28.624Z,100132.94
2022-12-23T11:19:13.986Z,100103.00
2022-12-23T11:21:58.778Z,100112.69
2022-12-23T11:24:39.681Z,100133.09
2022-12-23T11:27:16.830Z,100130.47
2022-12-23T11:29:54.554Z,100125.25
2022-12-23T11:32:28.906Z,100110.31
2022-12-23T11:35:01.112Z,100097.97
2022-12-23T11:37:42.989Z,100100.75
2022-12-23T11:40:35.738Z,100105.06
2022-12-23T11:43:17.632Z,100097.19
2022-12-23T11:46:19.054Z,100090.06
2022-12-23T11:49:21.942Z,100083.00
2022-12-23T11:52:05.712Z,100076.91
2022-12-23T11:54:39.036Z,100076.13
2022-12-23T11:57:22.989Z,100054.09
2022-12-23T12:00:03.455Z,100046.28
2022-12-23T12:02:43.343Z,100042.81
2022-12-23T12:05:40.722Z,100040.16
2022-12-23T12:08:22.674Z,100022.66
2022-12-23T12:11:06.323Z,100004.22
2022-12-23T12:13:44.530Z,99991.97
2022-12-23T12:17:00.161Z,99977.91
2022-12-23T12:20:33.199Z,99984.00
2022-12-23T12:23:26.670Z,99988.38
2022-12-23T12:26:06.596Z,99967.38
2022-12-23T12:28:47.159Z,99975.31
2022-12-23T12:31:31.259Z,99980.53
2022-12-23T12:34:53.891Z,99978.75
2022-12-23T12:37:31.658Z,99960.34
2022-12-23T12:40:51.098Z,99950.66
2022-12-23T12:43:40.143Z,99927.72
2022-12-23T12:46:36.857Z,99919.88
2022-12-23T12:49:26.676Z,99909.44
2022-12-23T12:52:20.070Z,99916.44
2022-12-23T12:55:26.735Z,99903.28
2022-12-23T12:58:00.956Z,99872.41
2022-12-23T13:00:54.515Z,99865.56
2022-12-23T13:03:55.837Z,99858.53
2022-12-23T13:06:53.667Z,99826.91
2022-12-23T13:09:41.988Z,99832.97
2022-12-23T13:12:33.899Z,99818.03
2022-12-23T13:15:27.627Z,99815.38
2022-12-23T13:18:37.655Z,99841.63
2022-12-23T13:21:21.718Z,99833.81
2022-12-23T13:24:31.816Z,99794.31
2022-12-23T13:27:53.110Z,99821.41
2022-12-23T13:30:34.362Z,99796.00
2022-12-23T13:33:31.763Z,99803.88
2022-12-23T13:36:38.889Z,99795.97
2022-12-23T13:39:44.817Z,99777.41
2022-12-23T13:42:31.657Z,99775.81
2022-12-23T13:45:06.814Z,99755.56
2022-12-23T13:48:14.606Z,99774.88
2022-12-23T13:51:07.350Z,99780.22
2022-12-23T13:54:03.862Z,99789.03
2022-12-23T13:56:47.224Z,99792.69
2022-12-23T13:59:19.278Z,99789.25
2022-12-23T14:01:52.727Z,99773.47
2022-12-23T14:04:32.284Z,99756.81
2022-12-23T14:07:24.605Z,99759.38
2022-12-23T14:10:12.876Z,99750.63
2022-12-23T14:12:44.871Z,99743.63
2022-12-23T14:15:43.235Z,99747.06
2022-12-23T14:18:37.192Z,99745.28
2022-12-23T14:21:52.388Z,99743.50
2022-12-23T14:25:21.517Z,99740.88
2022-12-23T14:28:13.202Z,99736.50
2022-12-23T14:30:46.134Z,99749.75
2022-12-23T14:33:32.732Z,99746.44
2022-12-23T14:36:26.885Z,99742.38
2022-12-23T14:39:14.166Z,99754.31
2022-12-23T14:41:57.565Z,99755.19
2022-12-23T14:44:38.221Z,99757.88
2022-12-23T14:47:40.337Z,99749.13
2022-12-23T14:50:38.418Z,99742.97
2022-12-23T14:53:25.044Z,99732.50
2022-12-23T14:56:15.345Z,99741.28
2022-12-23T14:59:02.770Z,99743.00
2022-12-23T15:01:47.958Z,99737.75
2022-12-23T15:04:47.954Z,99748.28
2022-12-23T15:07:24.822Z,99746.50
2022-12-23T15:10:01.404Z,99750.91
2022-12-23T15:12:39.962Z,99739.47
2022-12-23T15:15:24.148Z,99743.88
2022-12-23T15:18:12.256Z,99756.16
2022-12-23T15:20:44.337Z,99756.31
2022-12-23T15:23:17.629Z,99759.81
2022-12-23T15:25:51.363Z,99754.81
2022-12-23T15:28:38.466Z,99759.00
2022-12-23T15:31:26.415Z,99762.53
2022-12-23T15:34:04.652Z,99761.69
2022-12-23T15:36:42.265Z,99755.59
2022-12-23T15:39:45.239Z,99754.66
2022-12-23T15:42:35.418Z,99766.16
2022-12-23T15:45:40.924Z,99769.69
2022-12-23T15:48:40.441Z,99787.28
2022-12-23T15:52:05.064Z,99791.75
2022-12-23T15:54:43.211Z,99783.91
2022-12-23T15:57:23.307Z,99779.56
2022-12-23T15:59:58.357Z,99796.34
2022-12-23T16:05:34.483Z,99792.88
2022-12-23T16:08:16.279Z,99808.69
2022-12-23T16:11:02.357Z,99822.75
2022-12-23T16:13:34.336Z,99813.13
2022-12-23T16:16:43.001Z,99828.94
2022-12-23T16:19:48.692Z,99832.50
2022-12-23T16:22:20.633Z,99838.72
2022-12-23T16:25:22.311Z,99845.75
2022-12-23T16:27:59.873Z,99850.19
2022-12-23T16:30:39.176Z,99846.59
2022-12-23T16:33:37.133Z,99858.94
2022-12-23T16:36:27.356Z,99856.31
2022-12-23T16:39:21.936Z,99869.53
2022-12-23T16:41:53.867Z,99873.06
2022-12-23T16:44:25.805Z,99878.38
2022-12-23T16:47:14.237Z,99873.06
2022-12-23T16:49:46.757Z,99889.78
2022-12-23T16:52:18.945Z,99887.16
2022-12-23T16:54:50.876Z,99881.91
2022-12-23T16:57:22.834Z,99890.69
2022-12-23T16:59:54.735Z,99887.16
2022-12-23T17:02:28.965Z,99896.00
2022-12-23T17:05:01.172Z,99910.03
2022-12-23T17:07:33.125Z,99898.59
2022-12-23T17:10:05.814Z,99902.13
2022-12-23T17:12:38.212Z,99903.00
2022-12-23T17:15:36.569Z,99904.59
2022-12-23T17:18:18.713Z,99909.03
2022-12-23T17:20:50.806Z,99929.31
2022-12-23T17:23:32.448Z,99929.28
2022-12-23T17:26:04.418Z,99939.81
2022-12-23T17:28:36.379Z,99931.84
2022-12-23T17:31:14.394Z,99938.06
2022-12-23T17:33:48.236Z,99945.97
2022-12-23T17:36:20.480Z,99939.78
2022-12-23T17:38:52.540Z,99956.47
2022-12-23T17:41:31.695Z,99947.66
2022-12-23T17:44:05.086Z,99922.84
2022-12-23T17:46:37.044Z,99948.50
2022-12-23T17:49:09.473Z,99952.88
2022-12-23T17:51:42.858Z,99963.41
2022-12-23T17:54:24.760Z,99967.72
2022-12-23T17:56:57.880Z,99973.84
2022-12-23T17:59:29.917Z,99976.50
2022-12-23T18:02:32.889Z,99977.34
2022-12-23T18:05:35.807Z,99986.94
2022-12-23T18:08:07.723Z,99979.06
2022-12-23T18:10:40.957Z,99985.28
2022-12-23T18:13:19.444Z,99990.53
2022-12-23T18:15:51.433Z,99980.84
2022-12-23T18:18:32.096Z,99984.31
2022-12-23T18:21:18.944Z,99995.75
2022-12-23T18:23:54.870Z,99994.03
2022-12-23T18:26:26.937Z,99986.03
2022-12-23T18:28:59.041Z,100006.34
2022-12-23T18:31:31.504Z,99998.41
2022-12-23T18:34:03.975Z,100001.06
2022-12-23T18:36:35.985Z,99958.47
2022-12-23T18:39:08.045Z,100016.88
2022-12-23T18:41:39.996Z,100023.91
2022-12-23T18:44:21.558Z,100016.88
2022-12-23T18:46:53.751Z,100021.28
2022-12-23T18:49:25.728Z,100023.06
2022-12-23T18:51:57.756Z,100030.09
2022-12-23T18:54:30.163Z,100023.91
2022-12-23T18:57:03.512Z,100041.50
2022-12-23T18:59:37.693Z,100037.97
2022-12-23T19:02:14.219Z,100031.88
2022-12-23T19:04:46.348Z,100033.56
2022-12-23T19:07:18.830Z,100033.59
2022-12-23T19:09:50.748Z,100034.53
2022-12-23T19:12:22.769Z,100031.88
2022-12-23T19:14:54.744Z,100042.41
2022-12-23T19:17:26.697Z,100049.44
2022-12-23T19:19:58.647Z,100037.13
2022-12-23T19:22:30.732Z,100036.25
2022-12-23T19:25:06.585Z,100042.44
2022-12-23T19:27:43.084Z,100048.59
2022-12-23T19:30:18.066Z,100046.78
2022-12-23T19:32:53.329Z,100040.53
2022-12-23T19:35:25.250Z,100039.59
2022-12-23T19:37:57.251Z,100065.16
2022-12-23T19:40:29.638Z,100065.16
2022-12-23T19:43:01.662Z,100071.31
2022-12-23T19:45:33.726Z,100075.56
2022-12-23T19:48:06.000Z,100077.41
2022-12-23T19:50:37.968Z,100085.25
2022-12-23T19:53:09.874Z,100095.72
2022-12-23T19:55:41.861Z,100106.19
2022-12-23T19:58:13.771Z,100092.00
2022-12-23T20:00:45.796Z,100114.06
2022-12-23T20:03:19.201Z,100110.44
2022-12-23T20:05:51.317Z,100127.97
2022-12-23T20:08:23.304Z,100133.22
2022-12-23T20:11:18.442Z,100123.41
2022-12-23T20:13:55.169Z,100140.13
2022-12-23T20:16:28.611Z,100135.75
2022-12-23T20:19:00.729Z,100151.50
2022-12-23T20:21:34.444Z,100150.63
2022-12-23T20:24:07.160Z,100154.06
2022-12-23T20:26:39.519Z,100155.69
2022-12-23T20:29:11.804Z,100168.84
2022-12-23T20:31:44.066Z,100166.06
2022-12-23T20:34:17.302Z,100182.81
2022-12-23T20:36:49.430Z,100184.59
2022-12-23T20:39:21.486Z,100188.06
2022-12-23T20:41:53.380Z,100204.75
2022-12-23T20:44:35.068Z,100196.91
2022-12-23T20:47:08.374Z,100203.91
2022-12-23T20:49:40.450Z,100205.66
2022-12-23T20:52:12.364Z,100224.16
2022-12-23T20:54:44.533Z,100218.84
2022-12-23T20:57:16.485Z,100226.75
2022-12-23T20:59:48.554Z,100226.66
2022-12-23T21:02:20.726Z,100240.72
2022-12-23T21:04:52.832Z,100239.84
2022-12-23T21:07:26.287Z,100267.97
2022-12-23T21:09:58.513Z,100258.28
2022-12-23T21:12:30.585Z,100256.53
2022-12-23T21:15:02.663Z,100270.59
2022-12-23T21:17:34.684Z,100254.69
2022-12-23T21:20:09.152Z,100262.69
2022-12-23T21:22:41.163Z,100270.59
2022-12-23T21:25:13.225Z,100269.75
2022-12-23T21:27:45.240Z,100246.66
2022-12-23T21:30:17.340Z,100273.16
2022-12-23T21:32:49.345Z,100272.28
2022-12-23T21:35:21.268Z,100281.13
2022-12-23T21:37:53.205Z,100279.34
2022-12-23T21:40:25.148Z,100279.34
2022-12-23T21:42:57.104Z,100289.94
2022-12-23T21:45:29.087Z,100306.66
2022-12-23T21:48:01.125Z,100302.19
2022-12-23T21:50:33.604Z,100298.75
2022-12-23T21:53:05.553Z,100303.19
2022-12-23T21:55:37.488Z,100312.88
2022-12-23T21:58:09.580Z,100316.31
2022-12-23T22:00:46.318Z,100317.25
2022-12-23T22:03:18.393Z,100320.72
2022-12-23T22:05:50.339Z,100331.25
2022-12-23T22:08:22.374Z,100327.78
2022-12-23T22:10:54.323Z,100325.06
2022-12-23T22:13:27.668Z,100342.63
2022-12-23T22:15:59.720Z,100335.56
2022-12-23T22:18:32.343Z,100346.22
2022-12-23T22:21:11.432Z,100360.19
2022-12-23T22:23:43.890Z,100361.03
2022-12-23T22:26:25.332Z,100360.09
2022-12-23T22:29:01.120Z,100374.16
2022-12-23T22:31:44.961Z,100385.53
2022-12-23T22:34:22.604Z,100370.66
2022-12-23T22:36:54.567Z,100390.00
2022-12-23T22:39:26.696Z,100386.53
2022-12-23T22:41:58.699Z,100392.69
2022-12-23T22:44:30.697Z,100383.81
2022-12-23T22:47:02.775Z,100377.63
2022-12-23T22:49:34.853Z,100375.81
2022-12-23T22:52:06.815Z,100368.63
2022-12-23T22:54:39.652Z,100392.44
2022-12-23T22:57:11.652Z,100385.44
2022-12-23T22:59:43.831Z,100385.38
2022-12-23T23:02:15.843Z,100395.84
2022-12-23T23:04:47.912Z,100396.78
2022-12-23T23:07:19.932Z,100394.16
2022-12-23T23:09:51.901Z,100409.97
2022-12-23T23:12:23.912Z,100389.63
2022-12-23T23:14:55.998Z,100418.66
2022-12-23T23:17:29.335Z,100414.25
2022-12-23T23:20:01.289Z,100405.34
2022-12-23T23:22:33.290Z,100411.47
2022-12-23T23:25:06.110Z,100413.19
2022-12-23T23:27:38.051Z,100433.25
2022-12-23T23:30:10.603Z,100428.84
2022-12-23T23:32:42.838Z,100428.69
2022-12-23T23:35:14.969Z,100436.50
2022-12-23T23:37:46.923Z,100442.59
2022-12-23T23:40:19.004Z,100441.63
2022-12-23T23:42:50.993Z,100445.09
2022-12-23T23:45:23.208Z,100445.97
2022-12-23T23:47:56.335Z,100444.13
2022-12-23T23:50:28.354Z,100452.06
2022-12-23T23:53:00.303Z,100443.22
2022-12-23T23:55:32.748Z,100453.59
2022-12-23T23:58:06.359Z,100465.09
